sensor_id;sensor_type;location;lat;lon;timestamp;P1;durP1;ratioP1;P2;durP2;ratioP2
31596;SDS011;74162;50.912;6.918;2024-02-15T00:00:29;5.00;;;4.23;;
31596;SDS011;74162;50.912;6.918;2024-02-15T00:01:01;5.40;;;4.10;;
31596;SDS011;74162;50.912;6.918;2024-02-15T00:01:33;4.60;;;4.10;;
31596;SDS011;74162;50.912;6.918;2024-02-15T00:02:05;4.88;;;4.38;;
31596;SDS011;74162;50.912;6.918;2024-02-15T00:02:37;5.13;;;4.60;;
31596;SDS011;74162;50.912;6.918;2024-02-15T00:03:09;5.20;;;4.75;;
31596;SDS011;74162;50.912;6.918;2024-02-15T00:03:41;5.35;;;4.85;;
31596;SDS011;74162;50.912;6.918;2024-02-15T00:04:13;5.25;;;4.55;;
31596;SDS011;74162;50.912;6.918;2024-02-15T00:04:45;4.90;;;4.43;;
31596;SDS011;74162;50.912;6.918;2024-02-15T00:05:16;5.88;;;4.85;;
31596;SDS011;74162;50.912;6.918;2024-02-15T00:05:48;5.85;;;4.80;;
31596;SDS011;74162;50.912;6.918;2024-02-15T00:06:21;5.18;;;4.78;;
31596;SDS011;74162;50.912;6.918;2024-02-15T00:06:52;4.70;;;4.30;;
31596;SDS011;74162;50.912;6.918;2024-02-15T00:07:24;5.15;;;4.65;;
31596;SDS011;74162;50.912;6.918;2024-02-15T00:07:56;6.53;;;4.45;;
31596;SDS011;74162;50.912;6.918;2024-02-15T00:08:28;5.22;;;4.60;;
31596;SDS011;74162;50.912;6.918;2024-02-15T00:09:00;4.85;;;4.40;;
31596;SDS011;74162;50.912;6.918;2024-02-15T00:09:32;4.93;;;4.53;;
31596;SDS011;74162;50.912;6.918;2024-02-15T00:10:05;5.32;;;4.85;;
31596;SDS011;74162;50.912;6.918;2024-02-15T00:10:38;7.72;;;5.20;;
31596;SDS011;74162;50.912;6.918;2024-02-15T00:11:10;5.32;;;4.90;;
31596;SDS011;74162;50.912;6.918;2024-02-15T00:11:42;6.60;;;4.85;;
31596;SDS011;74162;50.912;6.918;2024-02-15T00:12:14;5.90;;;4.70;;
31596;SDS011;74162;50.912;6.918;2024-02-15T00:12:46;4.60;;;4.20;;
31596;SDS011;74162;50.912;6.918;2024-02-15T00:13:18;5.10;;;4.53;;
31596;SDS011;74162;50.912;6.918;2024-02-15T00:13:51;6.53;;;4.60;;
31596;SDS011;74162;50.912;6.918;2024-02-15T00:14:23;5.45;;;4.90;;
31596;SDS011;74162;50.912;6.918;2024-02-15T00:14:55;5.30;;;4.72;;
31596;SDS011;74162;50.912;6.918;2024-02-15T00:15:27;6.72;;;4.90;;
31596;SDS011;74162;50.912;6.918;2024-02-15T00:15:59;6.55;;;4.90;;
31596;SDS011;74162;50.912;6.918;2024-02-15T00:16:31;6.05;;;5.45;;
31596;SDS011;74162;50.912;6.918;2024-02-15T00:17:03;5.90;;;4.90;;
31596;SDS011;74162;50.912;6.918;2024-02-15T00:17:35;5.40;;;4.97;;
31596;SDS011;74162;50.912;6.918;2024-02-15T00:18:07;6.43;;;4.90;;
31596;SDS011;74162;50.912;6.918;2024-02-15T00:18:39;5.32;;;4.80;;
31596;SDS011;74162;50.912;6.918;2024-02-15T00:19:11;5.60;;;5.07;;
31596;SDS011;74162;50.912;6.918;2024-02-15T00:19:43;5.68;;;5.18;;
31596;SDS011;74162;50.912;6.918;2024-02-15T00:20:15;6.22;;;5.15;;
31596;SDS011;74162;50.912;6.918;2024-02-15T00:20:47;7.00;;;5.88;;
31596;SDS011;74162;50.912;6.918;2024-02-15T00:21:19;7.43;;;5.85;;
31596;SDS011;74162;50.912;6.918;2024-02-15T00:21:51;6.10;;;5.35;;
31596;SDS011;74162;50.912;6.918;2024-02-15T00:22:22;6.82;;;5.60;;
31596;SDS011;74162;50.912;6.918;2024-02-15T00:22:54;7.53;;;5.75;;
31596;SDS011;74162;50.912;6.918;2024-02-15T00:23:26;6.30;;;5.10;;
31596;SDS011;74162;50.912;6.918;2024-02-15T00:23:58;5.95;;;5.38;;
31596;SDS011;74162;50.912;6.918;2024-02-15T00:24:30;5.75;;;5.30;;
31596;SDS011;74162;50.912;6.918;2024-02-15T00:25:02;5.80;;;5.20;;
31596;SDS011;74162;50.912;6.918;2024-02-15T00:25:35;5.88;;;5.38;;
31596;SDS011;74162;50.912;6.918;2024-02-15T00:26:07;5.97;;;5.07;;
31596;SDS011;74162;50.912;6.918;2024-02-15T00:26:38;6.28;;;5.18;;
31596;SDS011;74162;50.912;6.918;2024-02-15T00:27:10;6.15;;;5.55;;
31596;SDS011;74162;50.912;6.918;2024-02-15T00:27:42;6.22;;;5.63;;
31596;SDS011;74162;50.912;6.918;2024-02-15T00:28:14;5.85;;;5.35;;
31596;SDS011;74162;50.912;6.918;2024-02-15T00:28:46;6.53;;;5.90;;
31596;SDS011;74162;50.912;6.918;2024-02-15T00:29:19;7.47;;;5.53;;
31596;SDS011;74162;50.912;6.918;2024-02-15T00:29:51;7.82;;;6.22;;
31596;SDS011;74162;50.912;6.918;2024-02-15T00:30:23;7.38;;;5.80;;
31596;SDS011;74162;50.912;6.918;2024-02-15T00:30:55;6.15;;;5.70;;
31596;SDS011;74162;50.912;6.918;2024-02-15T00:31:27;6.10;;;5.60;;
31596;SDS011;74162;50.912;6.918;2024-02-15T00:31:59;6.10;;;5.60;;
31596;SDS011;74162;50.912;6.918;2024-02-15T00:32:31;8.38;;;5.80;;
31596;SDS011;74162;50.912;6.918;2024-02-15T00:33:03;8.00;;;5.60;;
31596;SDS011;74162;50.912;6.918;2024-02-15T00:33:36;6.95;;;6.13;;
31596;SDS011;74162;50.912;6.918;2024-02-15T00:34:08;7.05;;;6.15;;
31596;SDS011;74162;50.912;6.918;2024-02-15T00:34:41;7.75;;;6.07;;
31596;SDS011;74162;50.912;6.918;2024-02-15T00:35:13;7.95;;;5.70;;
31596;SDS011;74162;50.912;6.918;2024-02-15T00:35:45;6.88;;;5.97;;
31596;SDS011;74162;50.912;6.918;2024-02-15T00:36:17;6.68;;;5.97;;
31596;SDS011;74162;50.912;6.918;2024-02-15T00:36:49;7.85;;;6.00;;
31596;SDS011;74162;50.912;6.918;2024-02-15T00:37:21;7.13;;;6.43;;
31596;SDS011;74162;50.912;6.918;2024-02-15T00:37:53;8.20;;;6.47;;
31596;SDS011;74162;50.912;6.918;2024-02-15T00:38:24;8.60;;;6.50;;
31596;SDS011;74162;50.912;6.918;2024-02-15T00:38:56;8.85;;;6.72;;
31596;SDS011;74162;50.912;6.918;2024-02-15T00:39:28;10.43;;;7.30;;
31596;SDS011;74162;50.912;6.918;2024-02-15T00:40:00;7.88;;;7.07;;
31596;SDS011;74162;50.912;6.918;2024-02-15T00:40:32;7.72;;;7.03;;
31596;SDS011;74162;50.912;6.918;2024-02-15T00:41:04;7.43;;;6.65;;
31596;SDS011;74162;50.912;6.918;2024-02-15T00:41:36;7.47;;;6.70;;
31596;SDS011;74162;50.912;6.918;2024-02-15T00:42:08;7.13;;;6.22;;
31596;SDS011;74162;50.912;6.918;2024-02-15T00:42:40;8.57;;;6.38;;
31596;SDS011;74162;50.912;6.918;2024-02-15T00:43:12;6.97;;;6.22;;
31596;SDS011;74162;50.912;6.918;2024-02-15T00:43:44;6.75;;;5.97;;
31596;SDS011;74162;50.912;6.918;2024-02-15T00:44:16;7.90;;;6.05;;
31596;SDS011;74162;50.912;6.918;2024-02-15T00:44:49;7.32;;;6.10;;
31596;SDS011;74162;50.912;6.918;2024-02-15T00:45:21;8.70;;;6.30;;
31596;SDS011;74162;50.912;6.918;2024-02-15T00:45:53;8.02;;;6.22;;
31596;SDS011;74162;50.912;6.918;2024-02-15T00:46:25;7.32;;;6.20;;
31596;SDS011;74162;50.912;6.918;2024-02-15T00:46:57;7.50;;;6.22;;
31596;SDS011;74162;50.912;6.918;2024-02-15T00:47:28;7.07;;;6.38;;
31596;SDS011;74162;50.912;6.918;2024-02-15T00:48:01;7.53;;;6.50;;
31596;SDS011;74162;50.912;6.918;2024-02-15T00:48:33;8.05;;;6.20;;
31596;SDS011;74162;50.912;6.918;2024-02-15T00:49:05;8.82;;;6.18;;
31596;SDS011;74162;50.912;6.918;2024-02-15T00:49:37;9.00;;;6.20;;
31596;SDS011;74162;50.912;6.918;2024-02-15T00:50:09;7.50;;;6.63;;
31596;SDS011;74162;50.912;6.918;2024-02-15T00:50:41;10.18;;;6.20;;
31596;SDS011;74162;50.912;6.918;2024-02-15T00:51:13;8.55;;;6.25;;
31596;SDS011;74162;50.912;6.918;2024-02-15T00:51:45;7.30;;;5.95;;
31596;SDS011;74162;50.912;6.918;2024-02-15T00:52:18;7.97;;;6.15;;
31596;SDS011;74162;50.912;6.918;2024-02-15T00:52:50;10.40;;;6.25;;
31596;SDS011;74162;50.912;6.918;2024-02-15T00:53:21;6.53;;;5.93;;
31596;SDS011;74162;50.912;6.918;2024-02-15T00:53:53;6.97;;;6.22;;
31596;SDS011;74162;50.912;6.918;2024-02-15T00:54:25;8.50;;;6.85;;
31596;SDS011;74162;50.912;6.918;2024-02-15T00:54:57;8.50;;;6.28;;
31596;SDS011;74162;50.912;6.918;2024-02-15T00:55:29;8.65;;;6.30;;
31596;SDS011;74162;50.912;6.918;2024-02-15T00:56:01;8.13;;;6.35;;
31596;SDS011;74162;50.912;6.918;2024-02-15T00:56:33;7.97;;;6.18;;
31596;SDS011;74162;50.912;6.918;2024-02-15T00:57:05;7.87;;;6.20;;
31596;SDS011;74162;50.912;6.918;2024-02-15T00:57:36;7.88;;;6.32;;
31596;SDS011;74162;50.912;6.918;2024-02-15T00:58:08;8.02;;;5.93;;
31596;SDS011;74162;50.912;6.918;2024-02-15T00:58:40;8.93;;;6.10;;
31596;SDS011;74162;50.912;6.918;2024-02-15T00:59:12;7.75;;;5.97;;
31596;SDS011;74162;50.912;6.918;2024-02-15T00:59:44;7.20;;;6.00;;
31596;SDS011;74162;50.912;6.918;2024-02-15T01:00:17;8.43;;;5.95;;
31596;SDS011;74162;50.912;6.918;2024-02-15T01:00:49;7.35;;;6.00;;
31596;SDS011;74162;50.912;6.918;2024-02-15T01:01:21;8.10;;;6.15;;
31596;SDS011;74162;50.912;6.918;2024-02-15T01:01:53;7.47;;;6.07;;
31596;SDS011;74162;50.912;6.918;2024-02-15T01:02:25;6.60;;;5.80;;
31596;SDS011;74162;50.912;6.918;2024-02-15T01:02:57;6.95;;;6.22;;
31596;SDS011;74162;50.912;6.918;2024-02-15T01:03:30;7.90;;;6.35;;
31596;SDS011;74162;50.912;6.918;2024-02-15T01:04:01;7.07;;;6.38;;
31596;SDS011;74162;50.912;6.918;2024-02-15T01:04:34;6.65;;;5.60;;
31596;SDS011;74162;50.912;6.918;2024-02-15T01:05:06;6.32;;;5.72;;
31596;SDS011;74162;50.912;6.918;2024-02-15T01:05:38;7.30;;;5.97;;
31596;SDS011;74162;50.912;6.918;2024-02-15T01:06:10;7.40;;;5.65;;
31596;SDS011;74162;50.912;6.918;2024-02-15T01:06:42;6.85;;;5.82;;
31596;SDS011;74162;50.912;6.918;2024-02-15T01:07:14;6.85;;;5.15;;
31596;SDS011;74162;50.912;6.918;2024-02-15T01:07:46;6.72;;;5.40;;
31596;SDS011;74162;50.912;6.918;2024-02-15T01:08:18;7.68;;;5.50;;
31596;SDS011;74162;50.912;6.918;2024-02-15T01:08:50;7.35;;;6.00;;
31596;SDS011;74162;50.912;6.918;2024-02-15T01:09:22;7.22;;;6.13;;
31596;SDS011;74162;50.912;6.918;2024-02-15T01:09:54;6.93;;;5.75;;
31596;SDS011;74162;50.912;6.918;2024-02-15T01:10:26;8.48;;;5.70;;
31596;SDS011;74162;50.912;6.918;2024-02-15T01:10:58;5.78;;;5.25;;
31596;SDS011;74162;50.912;6.918;2024-02-15T01:11:29;5.95;;;5.40;;
31596;SDS011;74162;50.912;6.918;2024-02-15T01:12:01;7.38;;;4.78;;
31596;SDS011;74162;50.912;6.918;2024-02-15T01:12:34;7.13;;;5.47;;
31596;SDS011;74162;50.912;6.918;2024-02-15T01:13:06;6.40;;;5.53;;
31596;SDS011;74162;50.912;6.918;2024-02-15T01:13:38;7.32;;;5.40;;
31596;SDS011;74162;50.912;6.918;2024-02-15T01:14:10;9.38;;;5.63;;
31596;SDS011;74162;50.912;6.918;2024-02-15T01:14:42;7.88;;;5.60;;
31596;SDS011;74162;50.912;6.918;2024-02-15T01:15:14;8.25;;;5.70;;
31596;SDS011;74162;50.912;6.918;2024-02-15T01:15:47;8.63;;;5.38;;
31596;SDS011;74162;50.912;6.918;2024-02-15T01:16:20;7.97;;;5.75;;
31596;SDS011;74162;50.912;6.918;2024-02-15T01:16:52;6.57;;;5.22;;
31596;SDS011;74162;50.912;6.918;2024-02-15T01:17:23;8.43;;;5.38;;
31596;SDS011;74162;50.912;6.918;2024-02-15T01:17:55;6.88;;;5.50;;
31596;SDS011;74162;50.912;6.918;2024-02-15T01:18:27;8.40;;;5.50;;
31596;SDS011;74162;50.912;6.918;2024-02-15T01:18:59;9.73;;;5.70;;
31596;SDS011;74162;50.912;6.918;2024-02-15T01:19:31;8.05;;;5.20;;
31596;SDS011;74162;50.912;6.918;2024-02-15T01:20:04;9.70;;;5.95;;
31596;SDS011;74162;50.912;6.918;2024-02-15T01:20:36;8.38;;;5.80;;
31596;SDS011;74162;50.912;6.918;2024-02-15T01:21:08;7.38;;;5.25;;
31596;SDS011;74162;50.912;6.918;2024-02-15T01:21:40;6.03;;;5.05;;
31596;SDS011;74162;50.912;6.918;2024-02-15T01:22:12;8.60;;;5.38;;
31596;SDS011;74162;50.912;6.918;2024-02-15T01:22:44;6.78;;;5.00;;
31596;SDS011;74162;50.912;6.918;2024-02-15T01:23:16;7.95;;;5.30;;
31596;SDS011;74162;50.912;6.918;2024-02-15T01:23:48;6.60;;;5.25;;
31596;SDS011;74162;50.912;6.918;2024-02-15T01:24:19;6.85;;;5.07;;
31596;SDS011;74162;50.912;6.918;2024-02-15T01:24:52;6.10;;;5.13;;
31596;SDS011;74162;50.912;6.918;2024-02-15T01:25:25;7.13;;;5.40;;
31596;SDS011;74162;50.912;6.918;2024-02-15T01:25:57;6.72;;;5.47;;
31596;SDS011;74162;50.912;6.918;2024-02-15T01:26:29;8.90;;;5.80;;
31596;SDS011;74162;50.912;6.918;2024-02-15T01:27:02;7.05;;;5.50;;
31596;SDS011;74162;50.912;6.918;2024-02-15T01:27:34;9.55;;;5.43;;
31596;SDS011;74162;50.912;6.918;2024-02-15T01:28:07;8.52;;;4.85;;
31596;SDS011;74162;50.912;6.918;2024-02-15T01:28:39;6.90;;;5.03;;
31596;SDS011;74162;50.912;6.918;2024-02-15T01:29:11;6.53;;;5.20;;
31596;SDS011;74162;50.912;6.918;2024-02-15T01:29:44;8.38;;;5.43;;
31596;SDS011;74162;50.912;6.918;2024-02-15T01:30:16;6.90;;;4.85;;
31596;SDS011;74162;50.912;6.918;2024-02-15T01:30:50;8.35;;;4.70;;
31596;SDS011;74162;50.912;6.918;2024-02-15T01:31:22;6.07;;;4.35;;
31596;SDS011;74162;50.912;6.918;2024-02-15T01:31:55;6.53;;;4.30;;
31596;SDS011;74162;50.912;6.918;2024-02-15T01:32:27;7.70;;;4.35;;
31596;SDS011;74162;50.912;6.918;2024-02-15T01:33:00;6.15;;;4.60;;
31596;SDS011;74162;50.912;6.918;2024-02-15T01:33:32;7.57;;;4.43;;
31596;SDS011;74162;50.912;6.918;2024-02-15T01:34:04;7.50;;;4.55;;
31596;SDS011;74162;50.912;6.918;2024-02-15T01:34:36;6.65;;;4.20;;
31596;SDS011;74162;50.912;6.918;2024-02-15T01:35:08;6.10;;;4.28;;
31596;SDS011;74162;50.912;6.918;2024-02-15T01:35:41;6.50;;;4.70;;
31596;SDS011;74162;50.912;6.918;2024-02-15T01:36:13;7.72;;;4.60;;
31596;SDS011;74162;50.912;6.918;2024-02-15T01:36:47;6.88;;;4.60;;
31596;SDS011;74162;50.912;6.918;2024-02-15T01:37:20;6.45;;;4.72;;
31596;SDS011;74162;50.912;6.918;2024-02-15T01:37:53;6.43;;;4.60;;
31596;SDS011;74162;50.912;6.918;2024-02-15T01:38:29;8.27;;;4.65;;
31596;SDS011;74162;50.912;6.918;2024-02-15T01:39:01;6.70;;;4.72;;
31596;SDS011;74162;50.912;6.918;2024-02-15T01:39:34;9.77;;;4.70;;
31596;SDS011;74162;50.912;6.918;2024-02-15T01:40:07;5.90;;;4.20;;
31596;SDS011;74162;50.912;6.918;2024-02-15T01:40:41;6.20;;;4.30;;
31596;SDS011;74162;50.912;6.918;2024-02-15T01:41:14;8.20;;;4.43;;
31596;SDS011;74162;50.912;6.918;2024-02-15T01:41:49;5.65;;;4.70;;
31596;SDS011;74162;50.912;6.918;2024-02-15T01:42:21;6.78;;;4.40;;
31596;SDS011;74162;50.912;6.918;2024-02-15T01:42:52;6.50;;;4.60;;
31596;SDS011;74162;50.912;6.918;2024-02-15T01:43:24;6.22;;;4.50;;
31596;SDS011;74162;50.912;6.918;2024-02-15T01:43:56;8.35;;;4.63;;
31596;SDS011;74162;50.912;6.918;2024-02-15T01:44:28;6.18;;;4.85;;
31596;SDS011;74162;50.912;6.918;2024-02-15T01:45:01;7.70;;;4.72;;
31596;SDS011;74162;50.912;6.918;2024-02-15T01:45:34;6.22;;;4.72;;
31596;SDS011;74162;50.912;6.918;2024-02-15T01:46:08;9.93;;;4.63;;
31596;SDS011;74162;50.912;6.918;2024-02-15T01:46:41;5.78;;;5.05;;
31596;SDS011;74162;50.912;6.918;2024-02-15T01:47:13;5.53;;;4.60;;
31596;SDS011;74162;50.912;6.918;2024-02-15T01:47:45;6.05;;;4.97;;
31596;SDS011;74162;50.912;6.918;2024-02-15T01:48:17;5.80;;;4.65;;
31596;SDS011;74162;50.912;6.918;2024-02-15T01:48:49;7.38;;;4.72;;
31596;SDS011;74162;50.912;6.918;2024-02-15T01:49:21;5.35;;;4.53;;
31596;SDS011;74162;50.912;6.918;2024-02-15T01:49:54;6.72;;;4.57;;
31596;SDS011;74162;50.912;6.918;2024-02-15T01:50:26;6.65;;;4.60;;
31596;SDS011;74162;50.912;6.918;2024-02-15T01:51:05;9.85;;;5.43;;
31596;SDS011;74162;50.912;6.918;2024-02-15T01:51:38;8.00;;;5.18;;
31596;SDS011;74162;50.912;6.918;2024-02-15T01:52:11;5.90;;;4.85;;
31596;SDS011;74162;50.912;6.918;2024-02-15T01:52:43;6.15;;;4.78;;
31596;SDS011;74162;50.912;6.918;2024-02-15T01:53:18;6.07;;;4.72;;
31596;SDS011;74162;50.912;6.918;2024-02-15T01:53:50;7.00;;;4.97;;
31596;SDS011;74162;50.912;6.918;2024-02-15T01:54:24;5.80;;;5.00;;
31596;SDS011;74162;50.912;6.918;2024-02-15T01:54:56;7.35;;;5.00;;
31596;SDS011;74162;50.912;6.918;2024-02-15T01:55:28;5.68;;;4.55;;
31596;SDS011;74162;50.912;6.918;2024-02-15T01:56:00;6.70;;;4.88;;
31596;SDS011;74162;50.912;6.918;2024-02-15T01:56:32;6.32;;;4.93;;
31596;SDS011;74162;50.912;6.918;2024-02-15T01:57:05;8.77;;;5.10;;
31596;SDS011;74162;50.912;6.918;2024-02-15T01:57:37;7.90;;;4.90;;
31596;SDS011;74162;50.912;6.918;2024-02-15T01:58:10;7.65;;;5.00;;
31596;SDS011;74162;50.912;6.918;2024-02-15T01:58:42;9.63;;;5.20;;
31596;SDS011;74162;50.912;6.918;2024-02-15T01:59:16;6.97;;;5.30;;
31596;SDS011;74162;50.912;6.918;2024-02-15T01:59:49;6.30;;;4.90;;
31596;SDS011;74162;50.912;6.918;2024-02-15T02:00:22;7.90;;;5.10;;
31596;SDS011;74162;50.912;6.918;2024-02-15T02:00:54;9.10;;;5.18;;
31596;SDS011;74162;50.912;6.918;2024-02-15T02:01:29;6.93;;;4.85;;
31596;SDS011;74162;50.912;6.918;2024-02-15T02:02:02;8.98;;;5.03;;
31596;SDS011;74162;50.912;6.918;2024-02-15T02:02:35;6.75;;;4.60;;
31596;SDS011;74162;50.912;6.918;2024-02-15T02:03:10;8.70;;;4.85;;
31596;SDS011;74162;50.912;6.918;2024-02-15T02:03:45;7.85;;;4.50;;
31596;SDS011;74162;50.912;6.918;2024-02-15T02:04:17;7.43;;;4.78;;
31596;SDS011;74162;50.912;6.918;2024-02-15T02:04:49;5.72;;;5.00;;
31596;SDS011;74162;50.912;6.918;2024-02-15T02:05:21;6.43;;;4.80;;
31596;SDS011;74162;50.912;6.918;2024-02-15T02:05:53;8.57;;;5.13;;
31596;SDS011;74162;50.912;6.918;2024-02-15T02:06:25;7.00;;;4.85;;
31596;SDS011;74162;50.912;6.918;2024-02-15T02:06:58;7.97;;;4.75;;
31596;SDS011;74162;50.912;6.918;2024-02-15T02:07:31;5.70;;;4.95;;
31596;SDS011;74162;50.912;6.918;2024-02-15T02:08:10;6.93;;;4.85;;
31596;SDS011;74162;50.912;6.918;2024-02-15T02:08:42;5.60;;;4.53;;
31596;SDS011;74162;50.912;6.918;2024-02-15T02:09:14;6.80;;;4.43;;
31596;SDS011;74162;50.912;6.918;2024-02-15T02:09:47;5.68;;;4.63;;
31596;SDS011;74162;50.912;6.918;2024-02-15T02:10:19;6.13;;;4.80;;
31596;SDS011;74162;50.912;6.918;2024-02-15T02:10:51;9.00;;;4.82;;
31596;SDS011;74162;50.912;6.918;2024-02-15T02:11:26;7.05;;;5.18;;
31596;SDS011;74162;50.912;6.918;2024-02-15T02:11:58;6.15;;;4.80;;
31596;SDS011;74162;50.912;6.918;2024-02-15T02:12:31;7.78;;;5.55;;
31596;SDS011;74162;50.912;6.918;2024-02-15T02:13:03;6.10;;;4.80;;
31596;SDS011;74162;50.912;6.918;2024-02-15T02:13:35;6.00;;;4.70;;
31596;SDS011;74162;50.912;6.918;2024-02-15T02:14:07;7.72;;;5.00;;
31596;SDS011;74162;50.912;6.918;2024-02-15T02:14:39;4.97;;;4.43;;
31596;SDS011;74162;50.912;6.918;2024-02-15T02:15:11;7.45;;;5.03;;
31596;SDS011;74162;50.912;6.918;2024-02-15T02:15:43;8.82;;;5.18;;
31596;SDS011;74162;50.912;6.918;2024-02-15T02:16:24;7.07;;;4.80;;
31596;SDS011;74162;50.912;6.918;2024-02-15T02:17:09;7.35;;;4.93;;
31596;SDS011;74162;50.912;6.918;2024-02-15T02:17:43;9.70;;;5.15;;
31596;SDS011;74162;50.912;6.918;2024-02-15T02:18:20;7.45;;;5.05;;
31596;SDS011;74162;50.912;6.918;2024-02-15T02:18:54;8.48;;;5.38;;
31596;SDS011;74162;50.912;6.918;2024-02-15T02:19:27;7.90;;;5.15;;
31596;SDS011;74162;50.912;6.918;2024-02-15T02:19:59;6.55;;;4.97;;
31596;SDS011;74162;50.912;6.918;2024-02-15T02:20:32;5.65;;;4.78;;
31596;SDS011;74162;50.912;6.918;2024-02-15T02:21:04;6.10;;;5.03;;
31596;SDS011;74162;50.912;6.918;2024-02-15T02:21:36;8.07;;;5.55;;
31596;SDS011;74162;50.912;6.918;2024-02-15T02:22:09;5.93;;;5.00;;
31596;SDS011;74162;50.912;6.918;2024-02-15T02:22:46;5.85;;;5.18;;
31596;SDS011;74162;50.912;6.918;2024-02-15T02:23:23;7.00;;;4.50;;
31596;SDS011;74162;50.912;6.918;2024-02-15T02:23:58;5.38;;;4.50;;
31596;SDS011;74162;50.912;6.918;2024-02-15T02:24:33;8.93;;;4.80;;
31596;SDS011;74162;50.912;6.918;2024-02-15T02:25:17;5.80;;;4.60;;
31596;SDS011;74162;50.912;6.918;2024-02-15T02:25:50;8.93;;;4.72;;
31596;SDS011;74162;50.912;6.918;2024-02-15T02:26:23;5.65;;;4.18;;
31596;SDS011;74162;50.912;6.918;2024-02-15T02:26:56;7.22;;;4.97;;
31596;SDS011;74162;50.912;6.918;2024-02-15T02:27:28;7.57;;;4.55;;
31596;SDS011;74162;50.912;6.918;2024-02-15T02:28:01;5.60;;;4.13;;
31596;SDS011;74162;50.912;6.918;2024-02-15T02:28:33;6.78;;;4.43;;
31596;SDS011;74162;50.912;6.918;2024-02-15T02:29:05;8.75;;;4.45;;
31596;SDS011;74162;50.912;6.918;2024-02-15T02:29:41;6.82;;;4.70;;
31596;SDS011;74162;50.912;6.918;2024-02-15T02:30:15;5.30;;;4.47;;
31596;SDS011;74162;50.912;6.918;2024-02-15T02:30:47;9.82;;;4.95;;
31596;SDS011;74162;50.912;6.918;2024-02-15T02:31:19;6.82;;;4.57;;
31596;SDS011;74162;50.912;6.918;2024-02-15T02:31:51;6.50;;;4.43;;
31596;SDS011;74162;50.912;6.918;2024-02-15T02:32:23;7.13;;;4.35;;
31596;SDS011;74162;50.912;6.918;2024-02-15T02:32:55;7.68;;;4.43;;
31596;SDS011;74162;50.912;6.918;2024-02-15T02:33:27;7.93;;;4.80;;
31596;SDS011;74162;50.912;6.918;2024-02-15T02:33:59;5.43;;;4.47;;
31596;SDS011;74162;50.912;6.918;2024-02-15T02:34:32;5.90;;;4.28;;
31596;SDS011;74162;50.912;6.918;2024-02-15T02:35:04;5.50;;;4.55;;
31596;SDS011;74162;50.912;6.918;2024-02-15T02:35:36;7.22;;;4.57;;
31596;SDS011;74162;50.912;6.918;2024-02-15T02:36:08;7.00;;;4.45;;
31596;SDS011;74162;50.912;6.918;2024-02-15T02:36:43;6.55;;;4.30;;
31596;SDS011;74162;50.912;6.918;2024-02-15T02:37:15;5.47;;;4.70;;
31596;SDS011;74162;50.912;6.918;2024-02-15T02:37:47;6.82;;;4.18;;
31596;SDS011;74162;50.912;6.918;2024-02-15T02:38:18;5.88;;;4.38;;
31596;SDS011;74162;50.912;6.918;2024-02-15T02:38:50;7.60;;;4.28;;
31596;SDS011;74162;50.912;6.918;2024-02-15T02:39:22;7.55;;;4.78;;
31596;SDS011;74162;50.912;6.918;2024-02-15T02:39:54;6.30;;;4.18;;
31596;SDS011;74162;50.912;6.918;2024-02-15T02:40:27;8.05;;;4.60;;
31596;SDS011;74162;50.912;6.918;2024-02-15T02:40:59;6.38;;;4.35;;
31596;SDS011;74162;50.912;6.918;2024-02-15T02:41:31;5.68;;;4.03;;
31596;SDS011;74162;50.912;6.918;2024-02-15T02:42:03;6.57;;;4.25;;
31596;SDS011;74162;50.912;6.918;2024-02-15T02:42:36;4.82;;;4.40;;
31596;SDS011;74162;50.912;6.918;2024-02-15T02:43:18;4.72;;;4.03;;
31596;SDS011;74162;50.912;6.918;2024-02-15T02:43:49;8.82;;;4.10;;
31596;SDS011;74162;50.912;6.918;2024-02-15T02:44:21;5.78;;;3.92;;
31596;SDS011;74162;50.912;6.918;2024-02-15T02:44:53;5.70;;;4.20;;
31596;SDS011;74162;50.912;6.918;2024-02-15T02:45:25;5.45;;;4.20;;
31596;SDS011;74162;50.912;6.918;2024-02-15T02:45:57;5.60;;;4.28;;
31596;SDS011;74162;50.912;6.918;2024-02-15T02:46:29;5.18;;;3.92;;
31596;SDS011;74162;50.912;6.918;2024-02-15T02:47:01;5.43;;;4.40;;
31596;SDS011;74162;50.912;6.918;2024-02-15T02:47:32;8.15;;;4.70;;
31596;SDS011;74162;50.912;6.918;2024-02-15T02:48:04;7.20;;;4.60;;
31596;SDS011;74162;50.912;6.918;2024-02-15T02:48:37;7.13;;;4.68;;
31596;SDS011;74162;50.912;6.918;2024-02-15T02:49:10;8.10;;;4.68;;
31596;SDS011;74162;50.912;6.918;2024-02-15T02:49:42;7.15;;;4.68;;
31596;SDS011;74162;50.912;6.918;2024-02-15T02:50:14;9.13;;;5.13;;
31596;SDS011;74162;50.912;6.918;2024-02-15T02:50:46;6.78;;;4.40;;
31596;SDS011;74162;50.912;6.918;2024-02-15T02:51:18;6.00;;;4.40;;
31596;SDS011;74162;50.912;6.918;2024-02-15T02:51:50;5.40;;;4.38;;
31596;SDS011;74162;50.912;6.918;2024-02-15T02:52:22;11.90;;;4.70;;
31596;SDS011;74162;50.912;6.918;2024-02-15T02:52:54;6.97;;;4.40;;
31596;SDS011;74162;50.912;6.918;2024-02-15T02:53:25;8.07;;;4.65;;
31596;SDS011;74162;50.912;6.918;2024-02-15T02:53:57;10.35;;;4.95;;
31596;SDS011;74162;50.912;6.918;2024-02-15T02:54:29;6.50;;;4.35;;
31596;SDS011;74162;50.912;6.918;2024-02-15T02:55:01;6.93;;;4.70;;
31596;SDS011;74162;50.912;6.918;2024-02-15T02:55:34;7.05;;;4.70;;
31596;SDS011;74162;50.912;6.918;2024-02-15T02:56:06;4.50;;;4.10;;
31596;SDS011;74162;50.912;6.918;2024-02-15T02:56:38;6.27;;;4.50;;
31596;SDS011;74162;50.912;6.918;2024-02-15T02:57:10;8.00;;;4.40;;
31596;SDS011;74162;50.912;6.918;2024-02-15T02:57:42;4.85;;;3.92;;
31596;SDS011;74162;50.912;6.918;2024-02-15T02:58:14;5.95;;;4.13;;
31596;SDS011;74162;50.912;6.918;2024-02-15T02:58:45;7.70;;;4.22;;
31596;SDS011;74162;50.912;6.918;2024-02-15T02:59:17;8.02;;;4.50;;
31596;SDS011;74162;50.912;6.918;2024-02-15T02:59:49;9.20;;;4.28;;
31596;SDS011;74162;50.912;6.918;2024-02-15T03:00:22;7.18;;;4.38;;
31596;SDS011;74162;50.912;6.918;2024-02-15T03:00:54;7.25;;;4.20;;
31596;SDS011;74162;50.912;6.918;2024-02-15T03:01:27;5.95;;;4.30;;
31596;SDS011;74162;50.912;6.918;2024-02-15T03:01:58;8.00;;;4.50;;
31596;SDS011;74162;50.912;6.918;2024-02-15T03:02:30;5.30;;;4.10;;
31596;SDS011;74162;50.912;6.918;2024-02-15T03:03:02;7.53;;;4.10;;
31596;SDS011;74162;50.912;6.918;2024-02-15T03:03:34;8.50;;;4.20;;
31596;SDS011;74162;50.912;6.918;2024-02-15T03:04:07;6.07;;;3.92;;
31596;SDS011;74162;50.912;6.918;2024-02-15T03:04:39;6.63;;;4.00;;
31596;SDS011;74162;50.912;6.918;2024-02-15T03:05:11;6.85;;;3.85;;
31596;SDS011;74162;50.912;6.918;2024-02-15T03:05:44;6.20;;;4.10;;
31596;SDS011;74162;50.912;6.918;2024-02-15T03:06:16;7.03;;;4.15;;
31596;SDS011;74162;50.912;6.918;2024-02-15T03:06:48;7.45;;;4.20;;
31596;SDS011;74162;50.912;6.918;2024-02-15T03:07:20;8.57;;;4.22;;
31596;SDS011;74162;50.912;6.918;2024-02-15T03:07:51;10.38;;;4.30;;
31596;SDS011;74162;50.912;6.918;2024-02-15T03:08:23;4.97;;;4.10;;
31596;SDS011;74162;50.912;6.918;2024-02-15T03:08:55;6.28;;;4.25;;
31596;SDS011;74162;50.912;6.918;2024-02-15T03:09:28;5.97;;;3.85;;
31596;SDS011;74162;50.912;6.918;2024-02-15T03:10:00;4.53;;;3.90;;
31596;SDS011;74162;50.912;6.918;2024-02-15T03:10:32;4.28;;;3.60;;
31596;SDS011;74162;50.912;6.918;2024-02-15T03:11:05;7.55;;;3.80;;
31596;SDS011;74162;50.912;6.918;2024-02-15T03:11:37;4.82;;;4.05;;
31596;SDS011;74162;50.912;6.918;2024-02-15T03:12:08;7.05;;;3.60;;
31596;SDS011;74162;50.912;6.918;2024-02-15T03:12:41;7.25;;;3.90;;
31596;SDS011;74162;50.912;6.918;2024-02-15T03:13:12;6.15;;;3.80;;
31596;SDS011;74162;50.912;6.918;2024-02-15T03:13:44;6.68;;;3.60;;
31596;SDS011;74162;50.912;6.918;2024-02-15T03:14:16;5.03;;;3.80;;
31596;SDS011;74162;50.912;6.918;2024-02-15T03:14:48;6.45;;;3.67;;
31596;SDS011;74162;50.912;6.918;2024-02-15T03:15:20;4.40;;;3.47;;
31596;SDS011;74162;50.912;6.918;2024-02-15T03:15:52;4.72;;;3.40;;